createdAt,value
2023-05-22T00:03:05.128Z,4.63
2023-05-22T00:08:29.537Z,4.47
2023-05-22T00:13:52.014Z,3.90
2023-05-22T00:19:17.063Z,4.28
2023-05-22T00:24:39.020Z,3.88
2023-05-22T00:30:01.565Z,4.03
2023-05-22T00:35:23.831Z,4.07
2023-05-22T00:40:45.879Z,4.28
2023-05-22T00:46:08.164Z,4.00
2023-05-22T00:51:30.215Z,4.15
2023-05-22T00:56:52.332Z,4.50
2023-05-22T01:02:16.694Z,3.92
2023-05-22T01:07:38.829Z,3.65
2023-05-22T01:13:12.487Z,4.25
2023-05-22T01:19:03.030Z,4.10
2023-05-22T01:24:53.421Z,3.70
2023-05-22T01:30:37.498Z,3.70
2023-05-22T01:36:02.553Z,4.15
2023-05-22T01:41:24.666Z,3.57
2023-05-22T01:46:46.570Z,4.00
2023-05-22T01:52:20.138Z,3.92
2023-05-22T01:58:03.196Z,4.03
2023-05-22T02:03:30.239Z,3.95
2023-05-22T02:08:53.674Z,3.78
2023-05-22T02:14:16.402Z,3.88
2023-05-22T02:19:38.367Z,4.20
2023-05-22T02:25:00.384Z,4.78
2023-05-22T02:30:22.277Z,4.68
2023-05-22T02:35:45.076Z,4.50
2023-05-22T02:41:08.214Z,3.90
2023-05-22T02:46:30.158Z,4.47
2023-05-22T02:51:52.068Z,4.28
2023-05-22T02:57:13.908Z,4.57
2023-05-22T03:02:36.833Z,3.92
2023-05-22T03:07:59.194Z,4.68
2023-05-22T03:13:21.120Z,4.18
2023-05-22T03:18:42.977Z,4.05
2023-05-22T03:24:05.676Z,4.15
2023-05-22T03:29:27.503Z,3.15
2023-05-22T03:34:49.296Z,3.97
2023-05-22T03:40:11.388Z,3.50
2023-05-22T03:45:33.266Z,3.58
2023-05-22T03:50:55.278Z,3.78
2023-05-22T03:56:17.262Z,4.00
2023-05-22T04:01:39.486Z,4.78
2023-05-22T04:07:02.910Z,3.65
2023-05-22T04:12:24.765Z,3.35
2023-05-22T04:17:48.121Z,3.88
2023-05-22T04:23:10.256Z,4.10
2023-05-22T04:28:32.308Z,4.32
2023-05-22T04:33:55.059Z,4.97
2023-05-22T04:39:17.423Z,4.38
2023-05-22T04:44:39.203Z,4.57
2023-05-22T04:50:02.738Z,3.95
2023-05-22T04:55:25.243Z,3.47
2023-05-22T05:00:47.149Z,4.00
2023-05-22T05:06:09.037Z,3.65
2023-05-22T05:11:31.520Z,4.22
2023-05-22T05:16:53.592Z,4.05
2023-05-22T05:22:15.643Z,3.40
2023-05-22T05:27:37.653Z,4.25
2023-05-22T05:32:59.541Z,5.57
2023-05-22T05:38:21.511Z,6.00
2023-05-22T05:43:43.382Z,6.57
2023-05-22T05:49:12.263Z,6.40
2023-05-22T05:54:34.152Z,6.43
2023-05-22T05:59:56.052Z,5.90
2023-05-22T06:05:19.541Z,7.32
2023-05-22T06:10:41.749Z,8.35
2023-05-22T06:16:05.839Z,8.75
2023-05-22T06:21:28.589Z,9.03
2023-05-22T06:26:50.491Z,11.48
2023-05-22T06:32:12.333Z,8.93
2023-05-22T06:37:36.037Z,11.00
2023-05-22T06:42:59.278Z,10.70
2023-05-22T06:48:21.160Z,10.73
2023-05-22T06:53:43.388Z,10.30
2023-05-22T06:59:06.320Z,9.88
2023-05-22T07:04:28.282Z,10.30
2023-05-22T07:09:50.184Z,10.93
2023-05-22T07:15:14.839Z,13.63
2023-05-22T07:20:39.880Z,12.70
2023-05-22T07:26:01.855Z,13.50
2023-05-22T07:31:23.725Z,14.45
2023-05-22T07:36:45.691Z,15.30
2023-05-22T07:42:08.011Z,15.88
2023-05-22T07:47:29.893Z,17.65
2023-05-22T07:52:52.012Z,18.52
2023-05-22T07:58:14.089Z,17.35
2023-05-22T08:03:36.232Z,19.15
2023-05-22T08:08:58.352Z,18.77
2023-05-22T08:14:22.233Z,21.30
2023-05-22T08:19:44.148Z,23.38
2023-05-22T08:25:06.782Z,23.08
2023-05-22T08:30:29.040Z,27.00
2023-05-22T08:35:51.387Z,27.92
2023-05-22T08:41:14.144Z,28.80
2023-05-22T08:46:38.515Z,29.67
2023-05-22T08:52:12.954Z,45.78
2023-05-22T08:57:36.248Z,40.35
2023-05-22T09:02:58.396Z,39.80
2023-05-22T09:08:21.344Z,38.25
2023-05-22T09:13:44.951Z,37.40
2023-05-22T09:19:06.927Z,37.00
2023-05-22T09:24:29.009Z,37.47
2023-05-22T09:29:52.641Z,37.42
2023-05-22T09:35:14.905Z,38.58
2023-05-22T09:40:43.409Z,37.53
2023-05-22T09:46:05.608Z,36.40
2023-05-22T09:51:28.020Z,34.78
2023-05-22T09:56:51.184Z,34.22
2023-05-22T10:02:13.852Z,35.72
2023-05-22T10:07:41.509Z,39.55
2023-05-22T10:13:06.989Z,37.95
2023-05-22T10:23:52.605Z,33.78
2023-05-22T10:29:22.572Z,31.13
2023-05-22T10:34:56.539Z,30.70
2023-05-22T10:40:29.016Z,30.65
2023-05-22T10:46:02.704Z,29.88
2023-05-22T10:51:25.322Z,29.63
2023-05-22T10:56:47.323Z,31.08
2023-05-22T11:02:30.020Z,30.40
2023-05-22T11:07:51.986Z,32.08
2023-05-22T11:13:14.098Z,31.73
2023-05-22T11:18:36.337Z,33.22
2023-05-22T11:24:01.425Z,34.67
2023-05-22T11:29:24.283Z,34.20
2023-05-22T11:34:47.761Z,36.88
2023-05-22T11:40:11.198Z,38.25
2023-05-22T11:45:37.940Z,37.33
2023-05-22T11:50:59.964Z,35.85
2023-05-22T11:56:25.080Z,33.65
2023-05-22T12:01:50.254Z,33.75
2023-05-22T12:07:12.541Z,33.58
2023-05-22T12:12:34.545Z,34.33
2023-05-22T12:17:56.725Z,33.28
2023-05-22T12:23:25.953Z,33.42
2023-05-22T12:28:47.935Z,32.78
2023-05-22T12:34:09.945Z,30.63
2023-05-22T12:39:31.858Z,31.52
2023-05-22T12:44:54.629Z,31.75
2023-05-22T12:50:16.601Z,29.88
2023-05-22T12:55:39.339Z,30.33
2023-05-22T13:01:01.407Z,30.77
2023-05-22T13:06:23.230Z,31.13
2023-05-22T13:11:45.142Z,30.98
2023-05-22T13:17:07.180Z,31.73
2023-05-22T13:22:29.328Z,31.63
2023-05-22T13:27:51.229Z,31.55
2023-05-22T13:33:13.839Z,30.20
2023-05-22T13:38:35.658Z,30.50
2023-05-22T13:43:57.641Z,28.42
2023-05-22T13:49:19.966Z,28.33
2023-05-22T13:54:41.872Z,25.85
2023-05-22T14:00:04.349Z,26.23
2023-05-22T14:05:26.285Z,26.13
2023-05-22T14:10:48.253Z,24.17
2023-05-22T14:16:10.235Z,24.45
2023-05-22T14:21:32.133Z,23.75
2023-05-22T14:26:58.247Z,22.00
2023-05-22T14:32:20.146Z,22.35
2023-05-22T14:37:42.105Z,21.80
2023-05-22T14:43:04.026Z,21.17
2023-05-22T14:48:26.997Z,21.13
2023-05-22T14:53:49.186Z,21.70
2023-05-22T14:59:12.113Z,19.02
2023-05-22T15:04:34.099Z,20.65
2023-05-22T15:09:56.791Z,19.25
2023-05-22T15:15:18.713Z,19.48
2023-05-22T15:20:40.572Z,17.58
2023-05-22T15:26:02.628Z,18.63
2023-05-22T15:31:24.504Z,16.73
2023-05-22T15:36:46.376Z,17.10
2023-05-22T15:42:08.579Z,19.60
2023-05-22T15:47:30.476Z,19.95
2023-05-22T15:52:52.329Z,20.73
2023-05-22T15:58:14.138Z,19.45
2023-05-22T16:03:36.122Z,19.60
2023-05-22T16:08:58.245Z,18.27
2023-05-22T16:14:20.114Z,19.50
2023-05-22T16:19:41.983Z,18.88
2023-05-22T16:25:03.986Z,19.67
2023-05-22T16:30:26.075Z,18.45
2023-05-22T16:35:48.120Z,16.80
2023-05-22T16:41:10.034Z,17.52
2023-05-22T16:46:31.956Z,17.92
2023-05-22T16:51:53.819Z,18.25
2023-05-22T16:57:16.531Z,22.45
2023-05-22T17:02:38.729Z,24.20
2023-05-22T17:08:00.970Z,23.38
2023-05-22T17:13:22.944Z,26.55
2023-05-22T17:18:44.786Z,26.23
2023-05-22T17:24:06.785Z,26.30
2023-05-22T17:29:28.986Z,40.17
2023-05-22T17:34:50.935Z,45.13
2023-05-22T17:40:12.892Z,41.22
2023-05-22T17:45:35.271Z,35.58
2023-05-22T17:50:57.070Z,35.97
2023-05-22T17:56:18.967Z,34.53
2023-05-22T18:01:41.353Z,32.40
2023-05-22T18:07:03.236Z,31.25
2023-05-22T18:12:31.806Z,29.63
2023-05-22T18:17:54.219Z,29.38
2023-05-22T18:23:16.360Z,27.17
2023-05-22T18:28:38.262Z,26.45
2023-05-22T18:34:00.206Z,26.48
2023-05-22T18:39:22.178Z,25.20
2023-05-22T18:44:44.032Z,24.33
2023-05-22T18:50:06.604Z,24.20
2023-05-22T18:55:28.570Z,21.45
2023-05-22T19:00:52.336Z,20.38
2023-05-22T19:06:14.196Z,20.52
2023-05-22T19:11:36.501Z,21.17
2023-05-22T19:17:00.990Z,19.38
2023-05-22T19:22:24.450Z,20.57
2023-05-22T19:27:47.805Z,19.35
2023-05-22T19:33:10.869Z,17.90
2023-05-22T19:38:32.990Z,18.88
2023-05-22T19:43:55.479Z,17.00
2023-05-22T19:49:17.509Z,17.17
2023-05-22T19:54:40.086Z,16.25
2023-05-22T20:00:02.678Z,15.00
2023-05-22T20:05:25.282Z,16.60
2023-05-22T20:10:47.641Z,14.68
2023-05-22T20:16:12.826Z,14.30
2023-05-22T20:26:57.188Z,12.23
2023-05-22T20:32:19.016Z,12.48
2023-05-22T20:37:42.000Z,12.32
2023-05-22T20:43:03.942Z,11.90
2023-05-22T20:48:25.849Z,11.38
2023-05-22T20:53:52.721Z,11.38
2023-05-22T20:59:14.845Z,11.38
2023-05-22T21:04:37.266Z,12.48
2023-05-22T21:09:59.051Z,11.43
2023-05-22T21:15:21.108Z,10.00
2023-05-22T21:20:42.990Z,10.82
2023-05-22T21:26:05.008Z,10.32
2023-05-22T21:31:27.044Z,10.40
2023-05-22T21:36:49.974Z,9.55
2023-05-22T21:42:11.926Z,10.02
2023-05-22T21:47:34.064Z,9.75
2023-05-22T21:52:56.082Z,9.82
2023-05-22T21:58:18.528Z,9.40
2023-05-22T22:03:40.583Z,9.60
2023-05-22T22:09:03.815Z,10.25
2023-05-22T22:14:25.751Z,10.73
2023-05-22T22:19:47.677Z,10.55
2023-05-22T22:25:09.844Z,11.88
2023-05-22T22:30:31.855Z,12.25
2023-05-22T22:35:54.088Z,13.15
2023-05-22T22:41:15.963Z,15.07
2023-05-22T22:46:38.193Z,16.23
2023-05-22T22:52:00.149Z,15.15
2023-05-22T22:57:21.971Z,15.82
2023-05-22T23:02:44.021Z,15.10
2023-05-22T23:08:06.149Z,15.85
2023-05-22T23:13:27.955Z,15.10
2023-05-22T23:18:49.826Z,14.77
2023-05-22T23:24:11.703Z,14.25
2023-05-22T23:29:33.563Z,14.40
2023-05-22T23:34:55.393Z,13.50
2023-05-22T23:40:17.436Z,13.10
2023-05-22T23:45:39.481Z,11.88
2023-05-22T23:51:03.040Z,12.73
2023-05-22T23:56:25.020Z,12.63
